Time;durP1;ratioP1;P1;durP2;ratioP2;P2;SDS_P1;SDS_P2;PMS_P1;PMS_P2;Temp;Humidity;BMP_temperature;BMP_pressure;BME280_temperature;BME280_humidity;BME280_pressure;Samples;Min_cycle;Max_cycle;Signal;HPM_P1;HPM_P2
2023/10/05 00:04:40;;;;;;;7.95;2.10;;;13.40;99.90;;;;;;5052570;28;20073;-76
2023/10/05 00:07:07;;;;;;;7.05;2.10;;;13.40;99.90;;;;;;5052380;28;20045;-75
2023/10/05 00:09:32;;;;;;;7.95;2.25;;;13.50;99.90;;;;;;5052054;28;20041;-76
2023/10/05 00:12:01;;;;;;;9.10;2.03;;;13.50;99.90;;;;;;5052112;28;20050;-76
2023/10/05 00:14:27;;;;;;;6.32;2.08;;;13.50;99.90;;;;;;5050295;28;20087;-76
2023/10/05 00:16:55;;;;;;;9.65;2.10;;;13.50;99.90;;;;;;5050759;28;20041;-76
2023/10/05 00:19:24;;;;;;;7.88;2.60;;;13.50;99.90;;;;;;5052209;28;20037;-76
2023/10/05 00:21:51;;;;;;;6.72;1.90;;;13.40;99.90;;;;;;5052025;28;20037;-76
2023/10/05 00:24:29;;;;;;;6.40;2.00;;;13.40;99.90;;;;;;5052378;28;20041;-76
2023/10/05 00:26:56;;;;;;;10.50;2.10;;;13.40;99.90;;;;;;5051829;28;20040;-76
2023/10/05 00:29:27;;;;;;;6.65;1.92;;;13.40;99.90;;;;;;5050330;28;20037;-77
2023/10/05 00:31:57;;;;;;;3.97;1.80;;;13.40;99.90;;;;;;5035527;28;20073;-75
2023/10/05 00:34:28;;;;;;;8.13;2.03;;;13.30;99.90;;;;;;5052011;28;20049;-76
2023/10/05 00:36:58;;;;;;;8.50;2.45;;;13.30;99.90;;;;;;5051792;28;20049;-76
2023/10/05 00:39:25;;;;;;;10.35;2.08;;;13.30;99.90;;;;;;5051438;28;20041;-76
2023/10/05 00:42:06;;;;;;;7.55;2.10;;;13.30;99.90;;;;;;5052062;28;20440;-76
2023/10/05 00:44:34;;;;;;;10.48;2.50;;;13.30;99.90;;;;;;5035157;28;20032;-76
2023/10/05 00:47:01;;;;;;;7.93;2.05;;;13.30;99.90;;;;;;5051631;28;20048;-76
2023/10/05 00:49:41;;;;;;;10.18;2.20;;;13.30;99.90;;;;;;5051557;28;20189;-77
2023/10/05 00:52:15;;;;;;;6.15;1.83;;;13.30;99.90;;;;;;5034909;28;20082;-77
2023/10/05 00:54:48;;;;;;;7.30;2.30;;;13.20;99.90;;;;;;5034756;28;20033;-76
2023/10/05 00:57:14;;;;;;;9.50;1.92;;;13.20;99.90;;;;;;5051437;28;20048;-77
2023/10/05 00:59:42;;;;;;;7.88;1.98;;;13.20;99.90;;;;;;5051348;28;20048;-77
2023/10/05 01:02:21;;;;;;;9.45;2.22;;;13.20;99.90;;;;;;5035022;28;20393;-75
2023/10/05 01:04:56;;;;;;;9.23;2.33;;;13.20;99.90;;;;;;5050907;28;20116;-76
2023/10/05 01:14:52;;;;;;;12.85;2.00;;;13.20;99.90;;;;;;5051133;28;20060;-76
2023/10/05 01:17:26;;;;;;;7.90;2.10;;;13.20;99.90;;;;;;5050860;28;20048;-76
2023/10/05 01:19:56;;;;;;;5.68;2.13;;;13.20;99.90;;;;;;5050639;28;20037;-76
2023/10/05 01:22:23;;;;;;;12.27;2.95;;;13.20;99.90;;;;;;5050499;28;20041;-76
2023/10/05 01:24:50;;;;;;;9.50;2.63;;;13.20;99.90;;;;;;5050821;28;20500;-77
2023/10/05 01:27:16;;;;;;;9.07;2.10;;;13.20;99.90;;;;;;5050739;28;20068;-76
2023/10/05 01:29:41;;;;;;;9.23;2.35;;;13.20;99.90;;;;;;5050352;28;20541;-77
2023/10/05 01:32:07;;;;;;;4.95;2.13;;;13.20;99.90;;;;;;5050183;28;20029;-76
2023/10/05 01:34:33;;;;;;;7.18;2.05;;;13.20;99.90;;;;;;5049033;28;20086;-77
2023/10/05 01:36:58;;;;;;;9.32;2.45;;;13.20;99.90;;;;;;5050971;28;20091;-77
2023/10/05 01:39:26;;;;;;;5.65;1.70;;;13.20;99.90;;;;;;5050556;28;20036;-77
2023/10/05 01:41:51;;;;;;;9.50;2.08;;;13.10;99.90;;;;;;5050536;28;20090;-78
2023/10/05 01:44:17;;;;;;;6.63;1.92;;;13.10;99.90;;;;;;5050600;28;20041;-76
2023/10/05 01:46:44;;;;;;;6.55;1.65;;;13.10;99.90;;;;;;5051972;28;20087;-76
2023/10/05 01:49:09;;;;;;;9.60;2.17;;;13.10;99.90;;;;;;5050121;28;20041;-77
2023/10/05 01:51:35;;;;;;;20.08;3.17;;;13.10;99.90;;;;;;5050537;28;20045;-76
2023/10/05 01:54:11;;;;;;;8.13;1.92;;;13.10;99.90;;;;;;5050596;28;20101;-77
2023/10/05 01:56:39;;;;;;;9.95;2.20;;;13.10;99.90;;;;;;5033556;28;20068;-76
2023/10/05 01:59:06;;;;;;;11.50;2.05;;;13.20;99.90;;;;;;5050018;28;20041;-76
2023/10/05 02:01:36;;;;;;;9.90;2.88;;;13.20;99.90;;;;;;5050030;28;20052;-76
2023/10/05 02:04:03;;;;;;;7.45;2.10;;;13.20;99.90;;;;;;5050263;28;20526;-77
2023/10/05 02:06:40;;;;;;;7.05;2.20;;;13.20;99.90;;;;;;5049441;28;20048;-76
2023/10/05 02:09:06;;;;;;;10.45;2.83;;;13.20;99.90;;;;;;5048938;28;20037;-76
2023/10/05 02:11:33;;;;;;;9.20;2.17;;;13.20;99.90;;;;;;5033678;28;20045;-76
2023/10/05 02:14:03;;;;;;;5.85;2.20;;;13.30;99.90;;;;;;5050157;28;20210;-76
2023/10/05 02:16:30;;;;;;;8.90;2.15;;;13.30;99.90;;;;;;5049958;28;20051;-75
2023/10/05 02:18:56;;;;;;;10.57;2.05;;;13.30;99.90;;;;;;5049648;28;20045;-77
2023/10/05 02:21:30;;;;;;;7.63;2.10;;;13.30;99.90;;;;;;5049779;28;20504;-76
2023/10/05 02:24:10;;;;;;;6.18;2.00;;;13.40;99.90;;;;;;5049761;28;20438;-76
2023/10/05 02:26:36;;;;;;;10.75;2.20;;;13.40;99.90;;;;;;5049833;28;20116;-76
2023/10/05 02:29:14;;;;;;;10.77;2.42;;;13.40;99.90;;;;;;5048943;28;20124;-76
2023/10/05 02:32:10;;;;;;;8.45;2.28;;;13.40;99.90;;;;;;5049688;28;20032;-76
2023/10/05 02:34:42;;;;;;;9.40;2.00;;;13.40;99.90;;;;;;5048901;28;20520;-76
2023/10/05 02:37:11;;;;;;;9.65;2.75;;;13.30;99.90;;;;;;5049554;28;20045;-76
2023/10/05 02:39:37;;;;;;;8.63;2.03;;;13.30;99.90;;;;;;5049550;28;20041;-77
2023/10/05 02:42:06;;;;;;;12.27;2.50;;;13.40;99.90;;;;;;5049551;28;20064;-77
2023/10/05 02:44:37;;;;;;;10.32;2.20;;;13.40;99.90;;;;;;5049607;28;20068;-77
2023/10/05 02:47:10;;;;;;;5.95;1.80;;;13.30;99.90;;;;;;5049636;28;20095;-77
2023/10/05 02:49:47;;;;;;;10.30;2.30;;;13.30;99.90;;;;;;5049386;28;20045;-77
2023/10/05 02:52:15;;;;;;;6.68;2.13;;;13.30;99.90;;;;;;5049606;28;20045;-77
2023/10/05 02:54:41;;;;;;;13.35;2.33;;;13.20;99.90;;;;;;5032837;28;20040;-77
2023/10/05 02:57:07;;;;;;;10.80;2.00;;;13.20;99.90;;;;;;5049476;28;20048;-77
2023/10/05 02:59:34;;;;;;;8.07;1.80;;;13.20;99.90;;;;;;5049582;28;20040;-77
2023/10/05 03:02:06;;;;;;;8.75;2.20;;;13.20;99.90;;;;;;5048680;28;20033;-77
2023/10/05 03:04:44;;;;;;;8.75;2.20;;;13.10;99.90;;;;;;5048789;28;20373;-78
2023/10/05 03:07:17;;;;;;;11.43;2.30;;;13.10;99.90;;;;;;5049785;28;20190;-77
2023/10/05 03:09:50;;;;;;;10.57;2.45;;;13.10;99.90;;;;;;5049504;28;20439;-77
2023/10/05 03:12:20;;;;;;;9.32;1.90;;;13.10;99.90;;;;;;5049556;28;20172;-77
2023/10/05 03:14:46;;;;;;;6.70;2.13;;;13.10;99.90;;;;;;5050025;28;20373;-77
2023/10/05 03:17:13;;;;;;;10.68;2.67;;;13.00;99.90;;;;;;5049385;28;20037;-77
2023/10/05 03:19:39;;;;;;;9.65;2.38;;;13.00;99.90;;;;;;5049332;28;20445;-77
2023/10/05 03:22:07;;;;;;;9.27;2.08;;;13.00;99.90;;;;;;5049579;28;20033;-76
2023/10/05 03:24:33;;;;;;;9.30;2.10;;;13.00;99.90;;;;;;5032706;28;20037;-77
2023/10/05 03:27:03;;;;;;;14.27;2.47;;;13.10;99.90;;;;;;5033058;28;20037;-76
2023/10/05 03:29:35;;;;;;;12.30;2.47;;;13.10;99.90;;;;;;5048901;28;20055;-77
2023/10/05 03:34:34;;;;;;;10.52;2.08;;;13.10;99.90;;;;;;5049180;28;20128;-77
2023/10/05 03:37:04;;;;;;;10.35;2.50;;;13.10;99.90;;;;;;5049214;28;20056;-77
2023/10/05 03:39:33;;;;;;;8.65;2.33;;;13.20;99.90;;;;;;5048817;28;20064;-77
2023/10/05 03:41:59;;;;;;;9.65;2.53;;;13.20;99.90;;;;;;5049454;28;20041;-77
2023/10/05 03:44:25;;;;;;;11.70;2.17;;;13.20;99.90;;;;;;5048779;28;20138;-76
2023/10/05 03:46:52;;;;;;;10.45;2.22;;;13.30;99.90;;;;;;5050424;28;20079;-77
2023/10/05 03:49:21;;;;;;;9.00;1.90;;;13.30;99.90;;;;;;5051502;28;20108;-77
2023/10/05 03:51:50;;;;;;;9.15;2.20;;;13.40;99.90;;;;;;5036052;28;20508;-77
2023/10/05 03:54:26;;;;;;;10.45;2.22;;;13.40;99.90;;;;;;5052989;28;20078;-76
2023/10/05 03:57:04;;;;;;;11.75;2.67;;;13.40;99.90;;;;;;5052445;28;20037;-76
2023/10/05 03:59:31;;;;;;;11.20;2.42;;;13.50;99.90;;;;;;5052608;28;20041;-77
2023/10/05 04:01:59;;;;;;;12.48;2.72;;;13.50;99.90;;;;;;5052360;28;20033;-76
2023/10/05 04:04:28;;;;;;;9.73;2.47;;;13.50;99.90;;;;;;5035707;28;20037;-77
2023/10/05 04:06:54;;;;;;;9.90;2.20;;;13.50;99.90;;;;;;5052362;28;20041;-77
2023/10/05 04:09:20;;;;;;;11.57;2.80;;;13.50;99.90;;;;;;5035321;28;20040;-77
2023/10/05 04:11:46;;;;;;;14.10;2.95;;;13.40;99.90;;;;;;5034363;28;20037;-77
2023/10/05 04:14:14;;;;;;;12.55;3.40;;;13.40;99.90;;;;;;5050313;28;20515;-76
2023/10/05 04:16:42;;;;;;;13.18;2.72;;;13.40;99.90;;;;;;5052039;28;20041;-77
2023/10/05 04:19:10;;;;;;;13.00;2.97;;;13.40;99.90;;;;;;5051874;28;20037;-75
2023/10/05 04:21:36;;;;;;;14.75;2.33;;;13.40;99.90;;;;;;5035126;28;20040;-77
2023/10/05 04:24:02;;;;;;;13.93;2.63;;;13.40;99.90;;;;;;5052180;28;20047;-76
2023/10/05 04:26:39;;;;;;;12.02;2.33;;;13.40;99.90;;;;;;5051991;28;20530;-76
2023/10/05 04:29:07;;;;;;;11.13;2.50;;;13.30;99.90;;;;;;5052017;28;20439;-77
2023/10/05 04:31:36;;;;;;;12.50;2.42;;;13.30;99.90;;;;;;5051996;28;20136;-77
2023/10/05 04:34:05;;;;;;;14.18;2.30;;;13.30;99.90;;;;;;5052039;28;20095;-76
2023/10/05 04:36:31;;;;;;;14.23;2.33;;;13.30;99.90;;;;;;5051616;28;20369;-77
2023/10/05 04:38:58;;;;;;;13.23;2.72;;;13.30;99.90;;;;;;5033896;28;20113;-77
2023/10/05 04:41:36;;;;;;;13.60;3.08;;;13.40;99.90;;;;;;5035034;28;20243;-76
2023/10/05 04:44:06;;;;;;;11.15;2.35;;;13.40;99.90;;;;;;5051944;28;20095;-77
2023/10/05 04:46:32;;;;;;;15.02;2.97;;;13.40;99.90;;;;;;5051616;28;20049;-77
2023/10/05 04:49:30;;;;;;;11.63;2.40;;;13.40;99.90;;;;;;5051247;28;20064;-76
2023/10/05 04:51:51;;;;;;;13.27;2.92;;;13.30;99.90;;;;;;5049536;28;20102;-77
2023/10/05 04:54:25;;;;;;;11.93;2.63;;;13.30;99.90;;;;;;5051479;28;20045;-77
2023/10/05 04:56:54;;;;;;;12.30;2.40;;;13.30;99.90;;;;;;5050746;28;20512;-77
2023/10/05 04:59:37;;;;;;;12.57;2.72;;;13.30;99.90;;;;;;5051036;28;20075;-77
2023/10/05 05:02:21;;;;;;;10.40;2.30;;;13.30;99.90;;;;;;5035102;28;20045;-77
2023/10/05 05:07:13;;;;;;;10.23;2.10;;;13.30;99.90;;;;;;5051472;28;20003;-76
2023/10/05 05:09:41;;;;;;;13.20;2.50;;;13.30;99.90;;;;;;5050883;28;20045;-76
2023/10/05 05:12:09;;;;;;;15.07;2.67;;;13.30;99.90;;;;;;5051108;28;20095;-76
2023/10/05 05:14:37;;;;;;;12.85;2.70;;;13.30;99.90;;;;;;5051265;28;20429;-77
2023/10/05 05:17:06;;;;;;;15.00;3.53;;;13.20;99.90;;;;;;5050862;28;20040;-76
2023/10/05 05:19:34;;;;;;;8.07;2.10;;;13.20;99.90;;;;;;5050847;28;20036;-77
2023/10/05 05:22:02;;;;;;;11.93;2.33;;;13.20;99.90;;;;;;5050960;28;20041;-77
2023/10/05 05:24:28;;;;;;;13.88;3.20;;;13.20;99.90;;;;;;5051168;28;20496;-77
2023/10/05 05:27:00;;;;;;;14.57;2.75;;;13.20;99.90;;;;;;5050820;28;20044;-77
2023/10/05 05:29:26;;;;;;;9.60;2.50;;;13.20;99.90;;;;;;5050554;28;20044;-77
2023/10/05 05:31:52;;;;;;;8.57;2.55;;;13.10;99.90;;;;;;5050741;28;20095;-77
2023/10/05 05:34:17;;;;;;;8.93;2.22;;;13.10;99.90;;;;;;5049874;28;20455;-77
2023/10/05 05:36:43;;;;;;;10.30;2.38;;;13.10;99.90;;;;;;5050220;28;20037;-77
2023/10/05 05:39:14;;;;;;;14.73;2.88;;;13.10;99.90;;;;;;5048646;28;20516;-76
2023/10/05 05:41:40;;;;;;;11.48;2.58;;;13.10;99.90;;;;;;5050600;28;20033;-77
2023/10/05 05:44:07;;;;;;;10.27;2.95;;;13.20;99.90;;;;;;5050828;28;20041;-77
2023/10/05 05:46:32;;;;;;;13.30;3.17;;;13.20;99.90;;;;;;5050301;28;20033;-76
2023/10/05 05:48:58;;;;;;;12.52;2.88;;;13.20;99.90;;;;;;5033476;28;20511;-77
2023/10/05 05:51:24;;;;;;;10.88;3.10;;;13.20;99.90;;;;;;5049616;28;20052;-77
2023/10/05 05:53:52;;;;;;;10.98;2.70;;;13.30;99.90;;;;;;5049481;28;20045;-77
2023/10/05 05:56:18;;;;;;;10.07;3.03;;;13.30;99.90;;;;;;5050376;28;20040;-77
2023/10/05 05:58:50;;;;;;;16.10;2.92;;;13.30;99.90;;;;;;5050176;28;20071;-77
2023/10/05 06:01:16;;;;;;;12.73;3.25;;;13.40;99.90;;;;;;5050286;28;20124;-77
2023/10/05 06:03:44;;;;;;;16.08;3.45;;;13.40;99.90;;;;;;5050279;28;20045;-76
2023/10/05 06:06:09;;;;;;;13.90;2.90;;;13.50;99.90;;;;;;5050505;28;20408;-77
2023/10/05 06:08:35;;;;;;;12.50;2.90;;;13.50;99.90;;;;;;5049562;28;20098;-76
2023/10/05 06:11:06;;;;;;;14.30;2.90;;;13.60;99.90;;;;;;5049972;28;20424;-76
2023/10/05 06:13:36;;;;;;;10.93;2.80;;;13.60;99.90;;;;;;5049888;28;20045;-77
2023/10/05 06:16:06;;;;;;;16.02;3.03;;;13.60;99.90;;;;;;5050087;28;20082;-77
2023/10/05 06:18:32;;;;;;;15.98;3.28;;;13.70;99.90;;;;;;5049557;28;20105;-77
2023/10/05 06:20:57;;;;;;;8.50;2.45;;;13.70;99.90;;;;;;5050150;28;20069;-76
2023/10/05 06:23:23;;;;;;;13.15;2.70;;;13.80;99.90;;;;;;5049843;28;20045;-77
2023/10/05 06:25:50;;;;;;;9.25;2.70;;;13.80;99.90;;;;;;5050203;28;20041;-76
2023/10/05 06:28:17;;;;;;;13.43;2.92;;;13.80;99.90;;;;;;5049406;28;20079;-77
2023/10/05 06:30:42;;;;;;;14.55;3.10;;;13.90;99.90;;;;;;5049896;28;20098;-77
2023/10/05 06:33:08;;;;;;;16.90;3.10;;;13.90;99.90;;;;;;5049669;28;20451;-77
2023/10/05 06:35:34;;;;;;;18.20;3.28;;;13.90;99.90;;;;;;5032704;28;20076;-77
2023/10/05 06:38:00;;;;;;;11.95;2.75;;;14.00;99.90;;;;;;5047943;28;20544;-76
2023/10/05 06:40:29;;;;;;;19.25;3.65;;;14.00;99.90;;;;;;5048957;28;20041;-76
2023/10/05 06:42:57;;;;;;;12.85;3.70;;;14.10;99.90;;;;;;5049680;28;20087;-77
2023/10/05 06:45:23;;;;;;;11.15;2.80;;;14.10;99.90;;;;;;5049608;28;20538;-76
2023/10/05 06:47:49;;;;;;;14.68;2.88;;;14.20;99.90;;;;;;5049837;28;20049;-77
2023/10/05 06:50:15;;;;;;;13.90;2.92;;;14.20;99.90;;;;;;5032841;28;20044;-78
2023/10/05 06:52:43;;;;;;;12.07;2.85;;;14.20;99.90;;;;;;5049859;28;20079;-77
2023/10/05 06:55:13;;;;;;;14.15;3.35;;;14.30;99.90;;;;;;5049625;28;20041;-78
2023/10/05 06:57:39;;;;;;;12.95;3.15;;;14.30;99.90;;;;;;5049532;28;20044;-77
2023/10/05 07:00:11;;;;;;;13.75;2.95;;;14.30;99.90;;;;;;5049385;28;20090;-78
2023/10/05 07:02:40;;;;;;;16.13;3.70;;;14.40;99.90;;;;;;5050037;28;20404;-78
2023/10/05 07:05:07;;;;;;;14.55;3.17;;;14.40;99.90;;;;;;5049492;28;20048;-78
2023/10/05 07:07:34;;;;;;;13.13;3.10;;;14.50;99.90;;;;;;5049630;28;20063;-77
2023/10/05 07:10:04;;;;;;;14.18;3.70;;;14.50;99.90;;;;;;5050278;28;20274;-78
2023/10/05 07:12:31;;;;;;;14.57;3.15;;;14.50;99.90;;;;;;5048453;28;20091;-77
2023/10/05 07:14:57;;;;;;;13.88;3.20;;;14.60;99.90;;;;;;5049336;28;20075;-77
2023/10/05 07:17:25;;;;;;;14.18;3.10;;;14.70;99.90;;;;;;5048038;28;20037;-77
2023/10/05 07:19:51;;;;;;;14.82;3.33;;;14.70;99.90;;;;;;5049380;28;20033;-78
2023/10/05 07:22:17;;;;;;;14.45;3.25;;;14.70;99.90;;;;;;5053349;28;20029;-77
2023/10/05 07:24:43;;;;;;;15.95;3.45;;;14.80;99.90;;;;;;5053285;28;20037;-77
2023/10/05 07:27:09;;;;;;;12.02;3.35;;;14.80;99.90;;;;;;5053252;28;20076;-78
2023/10/05 07:29:36;;;;;;;14.00;2.95;;;14.90;99.90;;;;;;5052936;28;20036;-77
2023/10/05 07:32:05;;;;;;;11.70;2.95;;;14.90;99.90;;;;;;5053528;28;20123;-77
2023/10/05 07:34:31;;;;;;;10.38;2.95;;;14.90;99.90;;;;;;5053309;28;20053;-78
2023/10/05 07:36:57;;;;;;;14.25;2.97;;;15.00;99.90;;;;;;5053388;28;20064;-77
2023/10/05 07:39:23;;;;;;;13.68;3.15;;;15.00;99.90;;;;;;5054144;28;20093;-78
2023/10/05 07:41:49;;;;;;;14.43;3.03;;;15.00;99.90;;;;;;5052977;28;20116;-78
2023/10/05 07:44:17;;;;;;;14.80;3.05;;;15.00;99.90;;;;;;5052889;28;20160;-78
2023/10/05 07:46:43;;;;;;;15.85;3.05;;;15.10;99.90;;;;;;5036411;28;20082;-77
2023/10/05 07:49:09;;;;;;;14.02;3.35;;;15.10;99.90;;;;;;5053089;28;20454;-78
2023/10/05 07:51:35;;;;;;;11.73;3.35;;;15.10;99.90;;;;;;5052914;28;20037;-78
2023/10/05 07:54:00;;;;;;;17.52;3.78;;;15.10;99.90;;;;;;5052972;28;20048;-77
2023/10/05 07:56:26;;;;;;;16.92;3.17;;;15.10;99.90;;;;;;5052879;28;20036;-78
2023/10/05 07:58:51;;;;;;;15.32;3.55;;;15.10;99.90;;;;;;5052050;28;20064;-78
2023/10/05 08:01:18;;;;;;;17.98;3.70;;;15.10;99.90;;;;;;5052480;28;20456;-78
2023/10/05 08:03:45;;;;;;;11.88;3.10;;;15.10;99.90;;;;;;5052812;28;20037;-78
2023/10/05 08:06:14;;;;;;;15.10;3.58;;;15.10;99.90;;;;;;5052934;28;20044;-78
2023/10/05 08:08:41;;;;;;;11.38;3.42;;;15.10;99.90;;;;;;5052340;28;20526;-78
2023/10/05 08:11:07;;;;;;;14.07;3.03;;;15.20;99.90;;;;;;5052564;28;20373;-78
2023/10/05 08:13:33;;;;;;;18.05;3.55;;;15.20;99.90;;;;;;5052649;28;20483;-78
2023/10/05 08:15:58;;;;;;;15.60;3.42;;;15.20;99.90;;;;;;5035736;28;20068;-78
2023/10/05 08:18:25;;;;;;;14.45;3.50;;;15.30;99.90;;;;;;5052206;28;20130;-78
2023/10/05 08:20:51;;;;;;;11.10;3.20;;;15.30;99.90;;;;;;5052721;28;20481;-78
2023/10/05 08:23:16;;;;;;;12.35;3.40;;;15.30;99.90;;;;;;5052015;28;20116;-78
2023/10/05 08:25:42;;;;;;;17.38;4.30;;;15.40;99.90;;;;;;5052293;28;20059;-78
2023/10/05 08:28:10;;;;;;;14.05;3.78;;;15.40;99.90;;;;;;5035300;28;20060;-79
2023/10/05 08:30:45;;;;;;;12.27;3.30;;;15.40;99.90;;;;;;5052116;28;20048;-78
2023/10/05 08:33:15;;;;;;;12.95;3.60;;;15.40;99.90;;;;;;5052709;28;20041;-78
2023/10/05 08:35:41;;;;;;;15.05;3.47;;;15.40;99.90;;;;;;5052802;28;20083;-78
2023/10/05 08:38:15;;;;;;;18.92;4.43;;;15.50;99.90;;;;;;5052092;28;20447;-78
2023/10/05 08:40:42;;;;;;;14.02;3.70;;;15.50;99.90;;;;;;5052172;28;20098;-78
2023/10/05 08:43:09;;;;;;;13.63;3.58;;;15.60;99.90;;;;;;5052371;28;20044;-78
2023/10/05 08:45:46;;;;;;;17.05;3.60;;;15.50;99.90;;;;;;5052007;28;20045;-77
2023/10/05 08:48:29;;;;;;;10.10;3.40;;;15.50;99.90;;;;;;5051656;28;20041;-78
2023/10/05 08:50:59;;;;;;;13.45;3.45;;;15.50;99.90;;;;;;5051670;28;20042;-78
2023/10/05 08:53:25;;;;;;;15.38;3.40;;;15.60;99.90;;;;;;5052168;28;20124;-78
2023/10/05 08:55:51;;;;;;;13.40;3.22;;;15.60;99.90;;;;;;5052117;28;20397;-78
2023/10/05 08:58:18;;;;;;;13.02;3.53;;;15.50;99.90;;;;;;5051622;28;20045;-78
2023/10/05 09:00:51;;;;;;;16.05;3.80;;;15.60;99.90;;;;;;5035235;28;20112;-78
2023/10/05 09:03:29;;;;;;;14.30;3.78;;;15.70;99.90;;;;;;5052001;28;20041;-78
2023/10/05 09:06:13;;;;;;;12.63;3.35;;;15.70;99.90;;;;;;5035455;28;20373;-79
2023/10/05 09:08:51;;;;;;;13.40;3.28;;;15.80;99.90;;;;;;5050370;28;20076;-78
2023/10/05 09:11:20;;;;;;;13.30;3.60;;;15.80;99.90;;;;;;5035070;28;20041;-78
2023/10/05 09:13:46;;;;;;;11.65;3.42;;;15.80;99.90;;;;;;5051173;28;20048;-78
2023/10/05 09:16:22;;;;;;;13.30;3.40;;;15.80;99.90;;;;;;5051745;28;20492;-79
2023/10/05 09:18:49;;;;;;;11.30;2.90;;;15.70;99.90;;;;;;5051321;28;20073;-79
2023/10/05 09:21:18;;;;;;;11.95;3.50;;;15.70;99.90;;;;;;5051399;28;20045;-79
2023/10/05 09:23:44;;;;;;;15.32;3.60;;;15.60;99.90;;;;;;5051266;28;20052;-79
2023/10/05 09:26:45;;;;;;;15.98;3.85;;;15.70;99.90;;;;;;5051360;28;20059;-79
2023/10/05 09:29:23;;;;;;;15.02;3.88;;;15.80;99.90;;;;;;5050171;28;20041;-79
2023/10/05 09:31:53;;;;;;;11.60;3.30;;;16.00;99.90;;;;;;5035192;28;20037;-79
2023/10/05 09:34:44;;;;;;;14.60;4.60;;;16.10;99.90;;;;;;5051578;28;20500;-78
2023/10/05 09:37:10;;;;;;;11.07;3.63;;;16.20;99.90;;;;;;5034846;28;20041;-79
2023/10/05 09:39:44;;;;;;;13.52;3.72;;;16.30;99.90;;;;;;5050851;28;20052;-79
2023/10/05 09:42:22;;;;;;;14.05;3.60;;;16.50;99.90;;;;;;5052115;28;20041;-78
2023/10/05 09:44:51;;;;;;;12.45;3.75;;;16.50;99.90;;;;;;5035691;28;20060;-78
2023/10/05 09:47:21;;;;;;;11.90;3.65;;;16.50;99.90;;;;;;5051287;28;20051;-78
2023/10/05 09:49:48;;;;;;;10.05;2.85;;;16.60;99.90;;;;;;5050521;28;20068;-78
2023/10/05 09:52:15;;;;;;;11.88;3.20;;;16.60;99.90;;;;;;5051077;28;20048;-79
2023/10/05 09:54:42;;;;;;;12.15;3.47;;;16.60;99.90;;;;;;5050953;28;20045;-78
2023/10/05 09:57:12;;;;;;;11.30;3.22;;;16.60;99.90;;;;;;5051127;28;20127;-78
2023/10/05 09:59:41;;;;;;;10.05;3.22;;;16.60;99.90;;;;;;5053005;28;20037;-80
2023/10/05 10:02:14;;;;;;;9.93;2.90;;;16.50;99.90;;;;;;5051009;28;20037;-79
2023/10/05 10:04:41;;;;;;;9.45;3.10;;;16.60;99.90;;;;;;5051090;28;20061;-79
2023/10/05 10:07:22;;;;;;;12.02;3.53;;;16.50;99.90;;;;;;5051040;28;20111;-79
2023/10/05 10:09:53;;;;;;;12.60;2.88;;;16.50;99.90;;;;;;5033975;28;20492;-79
2023/10/05 10:12:38;;;;;;;9.57;3.20;;;16.60;99.90;;;;;;5050976;28;20384;-79
2023/10/05 10:15:24;;;;;;;14.45;3.15;;;16.60;99.90;;;;;;5033951;28;20040;-79
2023/10/05 10:18:03;;;;;;;14.90;3.50;;;16.60;99.90;;;;;;5050383;28;20103;-79
2023/10/05 10:20:35;;;;;;;11.90;2.90;;;16.60;99.90;;;;;;5050376;28;20045;-80
2023/10/05 10:23:08;;;;;;;11.27;3.55;;;16.50;99.90;;;;;;5050973;28;20435;-79
2023/10/05 10:25:38;;;;;;;9.38;2.88;;;16.40;99.90;;;;;;5050527;28;20041;-79
2023/10/05 10:31:26;;;;;;;9.60;3.25;;;16.30;99.90;;;;;;5049473;28;20460;-79
2023/10/05 10:33:52;;;;;;;9.20;3.13;;;16.20;99.90;;;;;;5050444;28;20463;-79
2023/10/05 10:36:52;;;;;;;11.13;3.72;;;16.30;99.90;;;;;;5050122;28;20079;-79
2023/10/05 10:39:24;;;;;;;7.72;3.30;;;16.40;99.90;;;;;;5049652;28;20053;-79
2023/10/05 10:42:19;;;;;;;11.57;3.25;;;16.60;99.90;;;;;;5050580;28;20051;-79
2023/10/05 10:47:20;;;;;;;11.75;3.60;;;16.80;99.90;;;;;;5050157;28;20045;-79
2023/10/05 10:50:16;;;;;;;14.00;3.42;;;16.80;99.90;;;;;;5050161;28;20063;-79
2023/10/05 10:52:43;;;;;;;9.52;3.08;;;16.80;99.90;;;;;;5050341;28;20048;-79
2023/10/05 10:55:14;;;;;;;9.27;3.20;;;16.80;99.90;;;;;;5050416;28;20037;-79
2023/10/05 10:57:44;;;;;;;10.18;2.95;;;16.90;99.90;;;;;;5052756;28;20064;-79
2023/10/05 11:02:56;;;;;;;7.78;2.60;;;16.90;99.90;;;;;;5053490;28;20040;-79
2023/10/05 11:05:35;;;;;;;11.68;2.70;;;16.90;99.90;;;;;;5053640;28;20040;-78
2023/10/05 11:08:01;;;;;;;12.93;2.92;;;16.80;99.90;;;;;;5053524;28;20041;-78
2023/10/05 11:10:30;;;;;;;8.93;2.67;;;16.80;99.90;;;;;;5053515;28;20523;-79
2023/10/05 11:13:18;;;;;;;9.50;2.83;;;16.90;99.90;;;;;;5053634;28;20041;-78
2023/10/05 11:15:50;;;;;;;11.45;2.95;;;17.20;99.90;;;;;;5053670;28;20047;-77
2023/10/05 11:18:18;;;;;;;15.40;2.75;;;17.50;99.90;;;;;;5053404;28;20496;-79
2023/10/05 11:20:52;;;;;;;9.73;2.97;;;17.80;99.90;;;;;;5053821;28;20150;-79
2023/10/05 11:23:26;;;;;;;;;;;17.90;99.90;;;;;;5053888;28;20115;-80
2023/10/05 11:26:17;;;;;;;11.57;3.53;;;18.10;99.90;;;;;;5037530;28;19917;-80
2023/10/05 11:28:38;;;;;;;10.15;3.10;;;18.40;99.90;;;;;;5053220;28;20104;-79
2023/10/05 11:31:04;;;;;;;8.93;2.75;;;18.40;99.90;;;;;;5054011;28;20104;-78
2023/10/05 11:33:37;;;;;;;9.63;2.95;;;18.10;99.90;;;;;;5053826;28;20471;-80
2023/10/05 11:36:17;;;;;;;8.07;2.33;;;17.80;99.90;;;;;;5037814;28;20488;-79
2023/10/05 11:38:43;;;;;;;9.77;2.53;;;17.50;99.90;;;;;;5053652;28;20048;-80
2023/10/05 11:41:09;;;;;;;10.65;2.78;;;17.30;99.90;;;;;;5053921;28;20059;-79
2023/10/05 11:43:34;;;;;;;8.40;2.63;;;17.10;99.90;;;;;;5053673;28;20052;-79
2023/10/05 11:46:17;;;;;;;10.63;2.72;;;16.90;99.90;;;;;;5053085;28;20041;-77
2023/10/05 11:48:56;;;;;;;9.65;2.40;;;16.70;99.90;;;;;;5051915;28;20053;-77
2023/10/05 11:51:42;;;;;;;9.60;2.20;;;16.50;99.90;;;;;;5051346;28;20037;-78
2023/10/05 11:54:12;;;;;;;11.13;2.63;;;16.20;99.90;;;;;;5051638;28;20120;-74
2023/10/05 11:56:40;;;;;;;11.25;2.42;;;15.90;99.90;;;;;;5034906;28;20037;-76
2023/10/05 11:59:08;;;;;;;7.63;2.72;;;15.70;99.90;;;;;;5049996;28;20037;-76
2023/10/05 12:01:34;;;;;;;10.07;2.40;;;15.60;99.90;;;;;;5050544;28;20124;-75
2023/10/05 12:04:04;;;;;;;10.02;2.58;;;15.50;99.90;;;;;;5051529;28;20086;-75
2023/10/05 12:06:30;;;;;;;11.95;2.90;;;15.40;99.90;;;;;;5050877;28;20048;-75
2023/10/05 12:09:07;;;;;;;11.65;2.70;;;15.40;99.90;;;;;;5051183;28;20041;-75
2023/10/05 12:11:33;;;;;;;8.88;3.03;;;15.40;99.90;;;;;;5051415;28;20052;-75
2023/10/05 12:13:59;;;;;;;8.13;2.70;;;15.30;99.90;;;;;;5051197;28;20041;-75
2023/10/05 12:16:27;;;;;;;9.00;2.83;;;15.30;99.90;;;;;;5049709;28;20408;-76
2023/10/05 12:18:54;;;;;;;10.80;3.25;;;15.30;99.90;;;;;;5050194;28;20048;-76
2023/10/05 12:21:21;;;;;;;8.45;2.67;;;15.30;99.90;;;;;;5049561;28;20041;-76
2023/10/05 12:23:47;;;;;;;11.35;2.88;;;15.30;99.90;;;;;;5050878;28;20485;-76
2023/10/05 12:26:12;;;;;;;9.93;3.03;;;15.30;99.90;;;;;;5050646;28;20087;-75
2023/10/05 12:28:41;;;;;;;10.65;3.10;;;15.40;99.90;;;;;;5049472;28;20037;-75
2023/10/05 12:31:09;;;;;;;10.68;3.35;;;15.40;99.90;;;;;;5051281;28;20088;-76
2023/10/05 12:33:39;;;;;;;11.32;3.28;;;15.60;99.90;;;;;;5051248;28;20052;-76
2023/10/05 12:36:08;;;;;;;11.77;3.28;;;15.70;99.90;;;;;;5051052;28;20048;-76
2023/10/05 12:38:35;;;;;;;11.25;3.65;;;15.80;99.90;;;;;;5033780;28;20037;-77
2023/10/05 12:41:12;;;;;;;11.90;3.70;;;15.90;99.90;;;;;;5050778;28;20492;-77
2023/10/05 12:43:39;;;;;;;9.63;3.03;;;16.00;99.90;;;;;;5050713;28;20488;-77
2023/10/05 12:46:10;;;;;;;11.48;3.40;;;16.20;99.90;;;;;;5034219;28;20115;-77
2023/10/05 12:48:36;;;;;;;8.48;3.35;;;16.50;99.90;;;;;;5013912;28;1036739;-77
2023/10/05 12:51:02;;;;;;;10.75;3.20;;;16.60;99.90;;;;;;5050362;28;20064;-77
2023/10/05 12:53:28;;;;;;;10.88;3.38;;;16.60;99.90;;;;;;5051536;28;20045;-77
2023/10/05 12:55:56;;;;;;;13.95;3.25;;;16.70;99.90;;;;;;5051954;28;20056;-77
2023/10/05 12:58:23;;;;;;;7.32;2.88;;;16.60;99.90;;;;;;5051342;28;20463;-77
2023/10/05 13:00:49;;;;;;;9.20;2.50;;;16.60;99.90;;;;;;5051860;28;20132;-76
2023/10/05 13:03:15;;;;;;;8.75;2.80;;;16.60;99.90;;;;;;5051598;28;20080;-77
2023/10/05 13:05:45;;;;;;;9.85;2.97;;;16.80;99.90;;;;;;5051387;28;20069;-77
2023/10/05 13:08:11;;;;;;;12.65;2.78;;;17.10;99.90;;;;;;5052414;28;20053;-77
2023/10/05 13:10:40;;;;;;;12.57;2.97;;;17.30;99.90;;;;;;5034691;28;20044;-76
2023/10/05 13:13:20;;;;;;;9.65;2.70;;;17.50;99.90;;;;;;5051163;28;20064;-76
2023/10/05 13:15:46;;;;;;;14.23;2.90;;;17.60;99.90;;;;;;5051249;28;20044;-76
2023/10/05 13:18:21;;;;;;;10.80;3.15;;;17.60;99.90;;;;;;5049674;28;20429;-77